VK4VP-5 Buderim QLD AU current weather conditions

sailwx.info

Wind from 256 at 2 knots gusting 8

Air temperature 21.7° C
Dewpoint 12.8° C

Last reported at 2016-Sep-29 22:52 UTC.
Time now 2016-Sep-29 23:50 UTC

Location: S 26°42' E 153°05'.
View on Google Maps.

See reports from other nearby stations

  
Tides and Currents Weather Stations Pressure Air Temp Water Temp Dewpoint Dewpoint Depression Visibility Wind Speed Wind Dir Waves Ship Positions
date/time (UTC)wind fromknots sea level pressurealtimeterstation pressurevisibilityair tempwater tempwave heightnotes
2016-Sep-29 22:52 256 2 gusting 8 21.7
2016-Sep-29 22:44 258 0 gusting 8 21.7
2016-Sep-29 22:34 272 1 gusting 8 20.6
2016-Sep-29 22:24 261 5 gusting 10 20.6
2016-Sep-29 22:14 226 5 gusting 10 20.6
2016-Sep-29 22:04 231 2 gusting 11 21.1
2016-Sep-29 21:52 276 1 gusting 9 21.1
2016-Sep-29 21:42 282 1 gusting 8 20.6
2016-Sep-29 21:34 245 20.0
2016-Sep-29 21:24 188 19.4
2016-Sep-29 21:14 188 19.4
2016-Sep-29 21:04 188 19.4
2016-Sep-29 20:52 19.4
2016-Sep-29 20:44 189 18.9
2016-Sep-29 20:34 18.3
2016-Sep-29 20:24 188 18.3
2016-Sep-29 20:12 193 18.3
2016-Sep-29 20:04 18.3
2016-Sep-29 19:54 290 18.3
2016-Sep-29 19:44 333 18.3
2016-Sep-29 19:34 332 0 gusting 8 18.3
2016-Sep-29 19:22 333 1 gusting 8 18.3
2016-Sep-29 19:14 333 0 gusting 5 18.3
2016-Sep-29 19:04 333 0 gusting 5 18.3
2016-Sep-29 18:52 333 0 gusting 5 18.3
2016-Sep-29 18:42 332 18.3
2016-Sep-29 18:32 333 2 gusting 8 18.3
2016-Sep-29 18:24 349 6 gusting 15 18.3
2016-Sep-29 18:14 014 5 gusting 13 18.9
2016-Sep-29 18:02 004 19.4
2016-Sep-29 17:52 006 1 gusting 7 19.4
2016-Sep-29 17:44 012 2 gusting 8 18.9
2016-Sep-29 17:34 015 0 gusting 5 18.9
2016-Sep-29 17:22 015 18.9
2016-Sep-29 17:12 016 1 gusting 8 18.9
2016-Sep-29 17:04 016 2 gusting 10 18.9
2016-Sep-29 16:52 015 1 gusting 7 18.9
2016-Sep-29 16:44 014 2 gusting 9 18.9
2016-Sep-29 16:34 002 3 gusting 10 18.9
2016-Sep-29 16:24 354 2 gusting 8 18.9
2016-Sep-29 16:14 354 2 gusting 7 18.9
2016-Sep-29 16:02 354 2 gusting 7 18.3
2016-Sep-29 15:54 354 0 gusting 6 18.3
2016-Sep-29 15:44 354 1 gusting 6 18.3
2016-Sep-29 15:34 353 3 gusting 9 18.3
2016-Sep-29 15:24 348 3 gusting 7 18.9
2016-Sep-29 15:14 347 3 gusting 8 18.9
2016-Sep-29 15:02 343 5 gusting 10 18.3
2016-Sep-29 14:54 339 3 gusting 9 18.3
2016-Sep-29 14:42 336 2 gusting 8 18.3
2016-Sep-29 14:32 336 2 gusting 8 18.3
2016-Sep-29 14:24 337 17.8
2016-Sep-29 14:14 338 0 gusting 5 17.8
2016-Sep-29 14:04 338 0 gusting 5 17.8
2016-Sep-29 13:52 338 0 gusting 6 17.8
2016-Sep-29 13:44 338 1 gusting 7 17.8
2016-Sep-29 13:34 338 2 gusting 7 17.8
2016-Sep-29 13:22 338 2 gusting 7 17.8
2016-Sep-29 13:14 338 1 gusting 7 17.8
2016-Sep-29 13:02 338 1 gusting 5 17.8
2016-Sep-29 12:54 338 2 gusting 8 17.8
2016-Sep-29 12:44 339 2 gusting 6 17.8
2016-Sep-29 12:34 340 3 gusting 8 17.8
2016-Sep-29 12:24 341 2 gusting 6 17.8
2016-Sep-29 12:14 344 2 gusting 8 17.2
2016-Sep-29 12:04 345 0 gusting 6 17.2
2016-Sep-29 11:52 345 16.7
2016-Sep-29 11:42 345 16.7
2016-Sep-29 11:34 344 16.7
2016-Sep-29 11:24 345 16.7
2016-Sep-29 11:14 345 16.7
2016-Sep-29 11:02 345 16.7
2016-Sep-29 10:54 345 16.7
2016-Sep-29 10:44 345 16.7
2016-Sep-29 10:32 345 16.7
2016-Sep-29 10:22 345 16.7
2016-Sep-29 10:12 344 2 gusting 9 16.7
2016-Sep-29 10:02 351 2 gusting 8 17.2
2016-Sep-29 09:54 355 0 gusting 5 17.2
2016-Sep-29 09:42 355 1 gusting 8 17.2
2016-Sep-29 09:32 354 2 gusting 6 17.2
2016-Sep-29 09:22 355 2 gusting 7 17.2
2016-Sep-29 09:12 348 6 gusting 12 17.2
2016-Sep-29 09:04 338 6 gusting 12 17.8
2016-Sep-29 08:52 327 2 gusting 8 17.8
2016-Sep-29 08:44 328 2 gusting 8 17.8
2016-Sep-29 08:34 344 3 gusting 9 17.8
2016-Sep-29 08:22 333 0 gusting 5 17.8
2016-Sep-29 08:12 332 2 gusting 8 17.8
2016-Sep-29 08:02 321 5 gusting 9 17.8
2016-Sep-29 07:54 317 6 gusting 9 17.8
2016-Sep-29 07:44 325 6 gusting 13 18.3
2016-Sep-29 07:32 325 8 gusting 13 18.3
2016-Sep-29 07:22 338 8 gusting 16 18.9
2016-Sep-29 07:12 327 6 gusting 13 19.4
2016-Sep-29 07:04 322 6 gusting 11 20.0
2016-Sep-29 06:54 318 5 gusting 9 20.6
2016-Sep-29 06:44 323 6 gusting 12 20.6
2016-Sep-29 06:34 321 5 gusting 12 20.6
2016-Sep-29 06:22 322 1 gusting 6 20.0
2016-Sep-29 06:14 322 0 gusting 6 20.0
2016-Sep-29 06:04 322 20.0
2016-Sep-29 05:54 322 0 gusting 5 20.0
2016-Sep-29 05:42 322 1 gusting 6 20.6
2016-Sep-29 05:32 321 2 gusting 7 20.6
2016-Sep-29 05:24 324 1 gusting 9 21.1
2016-Sep-29 05:14 331 0 gusting 5 21.1
2016-Sep-29 05:04 333 0 gusting 7 21.1
2016-Sep-29 04:52 334 21.1
2016-Sep-29 04:44 334 0 gusting 3 21.1
2016-Sep-29 04:32 334 0 gusting 6 21.7
2016-Sep-29 04:22 333 21.7
2016-Sep-29 04:14 333 0 gusting 7 21.7
2016-Sep-29 04:02 336 2 gusting 7 21.7
2016-Sep-29 03:54 337 1 gusting 7 21.7
2016-Sep-29 03:42 330 5 gusting 11 21.7
2016-Sep-29 03:32 325 5 gusting 10 21.7
2016-Sep-29 03:22 331 2 gusting 8 22.2
2016-Sep-29 03:14 348 3 gusting 12 22.2
2016-Sep-29 03:02 331 1 gusting 5 22.8
2016-Sep-29 02:54 334 3 gusting 9 22.8
2016-Sep-29 02:44 351 3 gusting 10 23.3
2016-Sep-29 02:34 330 2 gusting 10 23.3
2016-Sep-29 02:22 347 3 gusting 8 23.3
2016-Sep-29 02:14 342 5 gusting 8 23.3
2016-Sep-29 02:04 014 5 gusting 11 23.3
2016-Sep-29 01:52 344 6 gusting 14 23.3
2016-Sep-29 01:42 346 8 gusting 16 23.3
2016-Sep-29 01:34 347 5 gusting 16 23.3
2016-Sep-29 01:24 011 2 gusting 8 23.3
2016-Sep-29 01:14 009 5 gusting 13 23.3
2016-Sep-29 01:02 352 5 gusting 11 23.3
2016-Sep-29 00:54 350 8 gusting 17 22.8
2016-Sep-29 00:44 016 8 gusting 19 23.3
2016-Sep-29 00:34 016 8 gusting 16 22.8
2016-Sep-29 00:22 017 3 gusting 13 22.8
2016-Sep-29 00:14 019 3 gusting 10 22.2
2016-Sep-29 00:04 022 3 gusting 9 21.7
2016-Sep-28 23:54 026 3 gusting 10 21.7
2016-Sep-28 23:44 030 0 gusting 8 21.1
2016-Sep-28 23:32 030 0 gusting 6 20.6
2016-Sep-28 23:24 029 1 gusting 7 20.6
2016-Sep-28 23:12 030 1 gusting 6 20.6
2016-Sep-28 23:04 030 0 gusting 6 20.6
2016-Sep-28 22:54 030 20.0
2016-Sep-28 22:44 030 19.4
2016-Sep-28 22:32 030 19.4
2016-Sep-28 22:24 024 19.4
2016-Sep-28 22:14 024 1 gusting 6 18.9
2016-Sep-28 22:04 023 0 gusting 5 18.9
2016-Sep-28 21:54 024 1 gusting 8 18.9
2016-Sep-28 21:44 024 1 gusting 7 18.9
2016-Sep-28 21:32 025 3 gusting 10 18.3
2016-Sep-28 21:22 026 3 gusting 8 18.3
2016-Sep-28 21:14 026 2 gusting 6 18.3
2016-Sep-28 21:02 026 1 gusting 6 18.3
2016-Sep-28 20:54 026 2 gusting 6 18.3
2016-Sep-28 20:44 027 2 gusting 8 18.3
2016-Sep-28 20:34 028 3 gusting 8 18.3
2016-Sep-28 20:24 030 3 gusting 10 18.3
2016-Sep-28 20:14 047 3 gusting 12 17.8
2016-Sep-28 20:04 051 2 gusting 8 17.8
2016-Sep-28 19:54 052 0 gusting 7 17.8
2016-Sep-28 19:44 052 17.8
2016-Sep-28 19:34 052 1 gusting 6 17.8
2016-Sep-28 19:24 052 1 gusting 5 17.8
2016-Sep-28 19:14 052 2 gusting 6 17.8
2016-Sep-28 19:02 053 2 gusting 8 17.8
2016-Sep-28 18:54 054 1 gusting 7 17.8
2016-Sep-28 18:44 054 1 gusting 7 17.2
2016-Sep-28 18:34 054 0 gusting 6 17.2
2016-Sep-28 18:22 054 1 gusting 6 17.8
2016-Sep-28 18:14 054 1 gusting 5 17.8
2016-Sep-28 18:02 054 0 gusting 3 17.8
2016-Sep-28 17:54 054 0 gusting 5 17.8
2016-Sep-28 17:44 054 1 gusting 5 18.3
2016-Sep-28 17:34 054 0 gusting 3 18.3
2016-Sep-28 17:24 054 0 gusting 5 18.3
2016-Sep-28 17:14 054 1 gusting 6 18.3
2016-Sep-28 17:04 054 1 gusting 6 18.3
2016-Sep-28 16:54 054 1 gusting 5 18.9
2016-Sep-28 16:44 054 0 gusting 5 18.3
2016-Sep-28 16:32 054 1 gusting 5 18.3
2016-Sep-28 16:22 054 1 gusting 5 18.3
2016-Sep-28 16:14 054 1 gusting 6 18.3
2016-Sep-28 16:04 054 2 gusting 6 18.9
2016-Sep-28 15:54 054 2 gusting 6 18.9
2016-Sep-28 15:44 056 2 gusting 9 18.9
2016-Sep-28 15:34 058 3 gusting 9 18.9
2016-Sep-28 15:22 061 2 gusting 7 18.9
2016-Sep-28 15:14 061 2 gusting 7 18.9
2016-Sep-28 15:02 061 2 gusting 6 18.9
2016-Sep-28 14:54 061 1 gusting 6 18.9
2016-Sep-28 14:44 061 0 gusting 5 18.9
2016-Sep-28 14:34 061 18.9
2016-Sep-28 14:24 061 18.3
2016-Sep-28 14:12 061 16.7
2016-Sep-28 14:04 061 16.1
2016-Sep-28 13:54 16.1
2016-Sep-28 13:44 16.7
2016-Sep-28 13:34 16.7
2016-Sep-28 13:23 16.7
2016-Sep-28 13:12 16.7
2016-Sep-28 13:04 16.7
2016-Sep-28 12:52 16.7
2016-Sep-28 12:42 16.7
2016-Sep-28 12:32 17.2
2016-Sep-28 12:24 17.2
2016-Sep-28 12:14 17.8
2016-Sep-28 12:04 17.8
2016-Sep-28 11:54 18.3
2016-Sep-28 11:44 18.9
2016-Sep-28 11:32 19.4
2016-Sep-28 11:24 061 20.0
2016-Sep-28 11:14 061 20.0
2016-Sep-28 11:04 061 20.0
2016-Sep-28 10:54 061 20.0
2016-Sep-28 10:44 061 20.0
2016-Sep-28 10:32 061 20.0
2016-Sep-28 10:24 061 19.4
2016-Sep-28 10:14 061 19.4
2016-Sep-28 10:04 061 18.9
2016-Sep-28 09:54 18.3
2016-Sep-28 09:44 18.3
2016-Sep-28 09:34 18.9
2016-Sep-28 09:24 18.9
2016-Sep-28 09:14 18.9
2016-Sep-28 09:02 19.4
2016-Sep-28 08:52 19.4
2016-Sep-28 08:44 20.0
2016-Sep-28 08:34 20.6
2016-Sep-28 08:22 20.6
2016-Sep-28 08:14 061 21.1
2016-Sep-28 08:02 061 21.1
2016-Sep-28 07:54 061 21.1
2016-Sep-28 07:44 062 21.7
2016-Sep-28 07:34 067 21.7
2016-Sep-28 07:22 068 22.2
2016-Sep-28 07:14 067 22.2
2016-Sep-28 07:02 067 0 gusting 7 22.2
2016-Sep-28 06:54 067 1 gusting 5 22.2
2016-Sep-28 06:44 067 22.2
2016-Sep-28 06:32 067 0 gusting 8 22.8
2016-Sep-28 06:23 066 0 gusting 3 22.8
2016-Sep-28 06:13 068 0 gusting 8 22.8
2016-Sep-28 06:04 071 1 gusting 8 22.8
2016-Sep-28 05:54 072 1 gusting 8 22.8
2016-Sep-28 05:42 061 1 gusting 8 22.8
2016-Sep-28 05:34 061 0 gusting 6 22.8
2016-Sep-28 05:22 065 2 gusting 10 23.3
2016-Sep-28 05:12 069 1 gusting 9 23.3
2016-Sep-28 05:04 080 1 gusting 8 23.3
2016-Sep-28 04:54 078 2 gusting 9 23.9
2016-Sep-28 04:44 070 0 gusting 6 24.4
2016-Sep-28 04:33 074 0 gusting 8 24.4
2016-Sep-28 04:24 079 2 gusting 10 23.9
2016-Sep-28 04:14 083 1 gusting 9 23.9
2016-Sep-28 04:04 089 1 gusting 8 23.9
2016-Sep-28 03:53 090 1 gusting 8 24.4
2016-Sep-28 03:44 093 1 gusting 8 24.4
2016-Sep-28 03:34 096 1 gusting 8 24.4
2016-Sep-28 03:24 098 1 gusting 8 24.4
2016-Sep-28 03:13 100 1 gusting 8 24.4
2016-Sep-28 03:02 116 2 gusting 9 24.4
2016-Sep-28 02:52 114 1 gusting 10 25.0
2016-Sep-28 02:44 115 0 gusting 10 25.6
2016-Sep-28 02:34 115 1 gusting 8 25.0
2016-Sep-28 02:22 121 3 gusting 8 25.0
2016-Sep-28 02:13 121 3 gusting 10 24.4
2016-Sep-28 02:04 120 2 gusting 8 25.0
2016-Sep-28 01:53 124 1 gusting 8 25.0
2016-Sep-28 01:44 131 3 gusting 8 25.0
2016-Sep-28 01:32 150 2 gusting 10 25.0
2016-Sep-28 01:24 160 2 gusting 11 25.0
2016-Sep-28 01:14 175 1 gusting 8 25.6
2016-Sep-28 01:02 182 1 gusting 8 25.6
2016-Sep-28 00:52 182 1 gusting 8 25.0
2016-Sep-28 00:42 181 2 gusting 11 25.0
2016-Sep-28 00:34 185 1 gusting 8 25.0
2016-Sep-28 00:24 187 1 gusting 8 24.4
2016-Sep-28 00:12 189 3 gusting 12 24.4
2016-Sep-28 00:02 191 1 gusting 8 24.4
2016-Sep-27 23:54 196 2 gusting 10 24.4
2016-Sep-27 23:44 202 1 gusting 7 23.9
2016-Sep-27 23:32 206 1 gusting 8 23.9
2016-Sep-27 23:22 209 1 gusting 8 23.9
2016-Sep-27 23:14 207 1 gusting 7 23.3
2016-Sep-27 23:04 206 1 gusting 8 23.3